createdAt,value
2019-01-23T00:09:08.310Z,14.87
2019-01-23T00:19:11.913Z,14.27
2019-01-23T00:29:15.498Z,15.47
2019-01-23T00:39:19.095Z,18.20
2019-01-23T00:49:22.713Z,20.23
2019-01-23T00:59:26.349Z,19.73
2019-01-23T01:09:29.943Z,19.03
2019-01-23T01:19:33.530Z,21.60
2019-01-23T01:29:37.115Z,21.63
2019-01-23T01:39:40.726Z,23.83
2019-01-23T01:49:44.305Z,24.00
2019-01-23T01:59:47.910Z,20.83
2019-01-23T02:09:51.518Z,24.20
2019-01-23T02:19:55.118Z,24.43
2019-01-23T02:29:58.719Z,21.73
2019-01-23T02:40:02.298Z,23.77
2019-01-23T02:50:05.949Z,24.53
2019-01-23T03:00:11.847Z,23.33
2019-01-23T03:10:17.436Z,25.13
2019-01-23T03:20:21.078Z,21.40
2019-01-23T03:30:24.651Z,21.20
2019-01-23T03:40:28.252Z,23.63
2019-01-23T03:50:31.838Z,24.37
2019-01-23T04:00:35.452Z,25.80
2019-01-23T04:10:39.047Z,28.07
2019-01-23T04:20:42.658Z,22.23
2019-01-23T04:30:46.322Z,25.13
2019-01-23T04:40:49.905Z,22.97
2019-01-23T04:51:21.746Z,23.37
2019-01-23T05:01:25.604Z,20.33
2019-01-23T05:11:29.205Z,25.57
2019-01-23T05:21:32.795Z,25.77
2019-01-23T05:31:37.162Z,23.40
2019-01-23T05:41:40.766Z,24.80
2019-01-23T05:51:44.351Z,30.33
2019-01-23T06:01:48.802Z,28.20
2019-01-23T06:11:52.389Z,28.53
2019-01-23T06:21:55.995Z,28.40
2019-01-23T06:31:59.578Z,34.33
2019-01-23T06:42:03.174Z,23.63
2019-01-23T06:52:06.792Z,32.43
2019-01-23T07:02:10.362Z,22.30
2019-01-23T07:12:14.014Z,21.13
2019-01-23T07:22:17.781Z,18.20
2019-01-23T07:32:21.382Z,28.67
2019-01-23T07:42:24.974Z,26.00
2019-01-23T07:52:28.595Z,29.07
2019-01-23T08:02:32.170Z,27.33
2019-01-23T08:12:35.755Z,18.93
2019-01-23T08:22:39.349Z,23.83
2019-01-23T08:32:42.954Z,24.13
2019-01-23T08:42:46.530Z,28.10
2019-01-23T08:52:50.154Z,26.33
2019-01-23T09:02:53.759Z,23.17
2019-01-23T09:12:57.438Z,21.83
2019-01-23T09:23:01.042Z,25.27
2019-01-23T09:33:32.951Z,27.47
2019-01-23T09:44:23.930Z,26.57
2019-01-23T09:54:27.530Z,23.50
2019-01-23T10:04:31.122Z,27.77
2019-01-23T10:14:34.776Z,29.67
2019-01-23T10:24:38.390Z,26.87
2019-01-23T10:34:41.983Z,23.03
2019-01-23T10:44:45.575Z,26.70
2019-01-23T10:54:49.170Z,29.43
2019-01-23T11:04:52.753Z,27.80
2019-01-23T11:14:56.398Z,24.77
2019-01-23T11:24:59.999Z,21.20
2019-01-23T11:35:03.596Z,18.63
2019-01-23T11:45:08.595Z,20.30
2019-01-23T11:55:12.168Z,20.07
2019-01-23T12:05:17.687Z,24.47
2019-01-23T12:15:22.704Z,21.80
2019-01-23T12:25:26.334Z,19.47
2019-01-23T12:35:29.927Z,16.70
2019-01-23T12:45:33.506Z,15.90
2019-01-23T12:55:37.094Z,21.27
2019-01-23T13:05:40.699Z,17.80
2019-01-23T13:15:44.290Z,15.93
2019-01-23T13:25:47.879Z,17.60
2019-01-23T13:35:51.542Z,18.67
2019-01-23T13:45:55.133Z,19.43
2019-01-23T13:55:58.727Z,18.93
2019-01-23T14:06:02.402Z,20.27
2019-01-23T14:16:06.066Z,19.07
2019-01-23T14:26:09.756Z,20.60
2019-01-23T14:36:13.334Z,15.80
2019-01-23T14:46:16.914Z,24.23
2019-01-23T14:56:20.499Z,17.50
2019-01-23T15:06:24.317Z,15.60
2019-01-23T15:16:28.031Z,20.33
2019-01-23T15:26:31.696Z,17.37
2019-01-23T15:36:35.323Z,14.27
2019-01-23T15:46:38.922Z,21.60
2019-01-23T15:56:42.907Z,20.77
2019-01-23T16:06:46.568Z,15.47
2019-01-23T16:16:50.151Z,18.37
2019-01-23T16:26:54.555Z,15.53
2019-01-23T16:36:58.241Z,13.97
2019-01-23T16:47:01.842Z,13.60
2019-01-23T16:57:05.440Z,19.23
2019-01-23T17:07:09.302Z,15.37
2019-01-23T17:17:12.939Z,12.97
2019-01-23T17:27:16.567Z,12.07
2019-01-23T17:37:20.152Z,12.07
2019-01-23T17:47:23.839Z,9.67
2019-01-23T17:57:35.487Z,11.27
2019-01-23T18:07:39.078Z,7.87
2019-01-23T18:17:42.664Z,11.37
2019-01-23T18:27:46.276Z,7.60
2019-01-23T18:38:19.786Z,6.03
2019-01-23T18:48:49.062Z,6.20
2019-01-23T18:58:52.669Z,7.13
2019-01-23T19:08:56.311Z,6.23
2019-01-23T19:18:59.889Z,7.97
2019-01-23T19:29:05.862Z,7.90
2019-01-23T19:39:09.468Z,7.27
2019-01-23T19:49:13.135Z,5.43
2019-01-23T19:59:16.787Z,8.10
2019-01-23T20:09:20.571Z,9.03
2019-01-23T20:19:31.735Z,9.47
2019-01-23T20:29:46.682Z,7.70
2019-01-23T20:39:50.265Z,7.50
2019-01-23T20:49:54.122Z,11.70
2019-01-23T21:00:15.073Z,18.00
2019-01-23T21:10:19.363Z,23.80
2019-01-23T21:20:22.987Z,21.73
2019-01-23T21:30:27.062Z,30.63
2019-01-23T21:40:32.194Z,26.30
2019-01-23T21:50:35.795Z,31.43
2019-01-23T22:00:45.043Z,28.03
2019-01-23T22:10:48.643Z,38.30
2019-01-23T22:20:52.531Z,38.13
2019-01-23T22:30:56.167Z,33.40
2019-01-23T22:40:59.828Z,31.47
2019-01-23T22:51:03.439Z,43.10
2019-01-23T23:01:28.822Z,39.33
2019-01-23T23:11:32.483Z,37.13
2019-01-23T23:21:36.075Z,40.47
2019-01-23T23:31:39.665Z,37.40
2019-01-23T23:41:43.306Z,33.00
2019-01-23T23:51:47.446Z,35.67
